Star Pride — 9V9351 — position and weather

sailwx.info

Track history (hours):
 
Tides and Currents Weather Stations Pressure Air Temp Water Temp Dewpoint Dewpoint Depression Visibility Wind Speed Wind Dir Waves Ship Positions

Star Pride

Last reported at 2018-Jun-14 14:06 UTC. Time now 2018-Jun-22 07:31 UTC.
Position N 26°42' W 114°37'.

Length 163 m; draft 7.9 m.

Type: Cargo ship. MMSI: 566090000.

Date/timePositionNaut miles runAvg speedWind from/ knotsBaromVisibWave heightAir tempDewpointWater temp
2018-Jun-14 14:06N 26°42' W 114°37'220.6
2018-Jun-14 14:00N 26°44' W 114°38'1120.9
2018-Jun-14 13:29N 26°53' W 114°45'4120.8
2018-Jun-14 11:30N 27°27' W 115°11'6520.0
2018-Jun-14 08:16N 28°20' W 115°53'2720.7
2018-Jun-14 06:57N 28°45' W 116°05'2120.7
2018-Jun-14 05:58N 29°04' W 116°14'1720.3
2018-Jun-14 05:09N 29°19' W 116°21'320.3
2018-Jun-14 05:00N 29°22' W 116°22'1220.7
2018-Jun-14 04:24N 29°34' W 116°28'820.6
2018-Jun-14 04:00N 29°41' W 116°32'1221.1
2018-Jun-14 03:25N 29°52' W 116°37'921.6
2018-Jun-14 03:00N 30°01' W 116°41'1021.2
2018-Jun-14 02:30N 30°11' W 116°45'1321.2
2018-Jun-14 01:53N 30°23' W 116°51'821.1
2018-Jun-14 01:29N 30°30' W 116°55'1421.4
2018-Jun-14 00:50N 30°43' W 117°02'1220.9
2018-Jun-14 00:15N 30°54' W 117°07'720.7
2018-Jun-13 23:56N 31°01' W 117°10'1120.6
2018-Jun-13 23:25N 31°11' W 117°14'820.3
2018-Jun-13 23:01N 31°18' W 117°18'1820.4
2018-Jun-13 22:09N 31°34' W 117°26'320.4
2018-Jun-13 21:59N 31°37' W 117°28'1020.3
2018-Jun-13 21:29N 31°47' W 117°32'1020.1
2018-Jun-13 20:58N 31°56' W 117°37'919.0
2018-Jun-13 20:31N 32°04' W 117°41'1019.1
2018-Jun-13 20:00N 32°13' W 117°45'1019.6
2018-Jun-13 19:31N 32°22' W 117°49'1019.9
2018-Jun-13 19:01N 32°31' W 117°55'1019.7
2018-Jun-13 18:30N 32°39' W 118°02'1019.7
2018-Jun-13 18:00N 32°47' W 118°08'1019.9
2018-Jun-13 17:31N 32°55' W 118°16'1020.2
2018-Jun-13 17:01N 33°03' W 118°23'918.9
2018-Jun-13 16:30N 33°11' W 118°30'917.5
2018-Jun-13 16:00N 33°18' W 118°36'917.4
2018-Jun-13 15:30N 33°25' W 118°42'917.6
2018-Jun-13 15:00N 33°32' W 118°48'916.8
2018-Jun-13 14:29N 33°39' W 118°55'816.2
2018-Jun-13 13:59N 33°45' W 119°00'916.1
2018-Jun-13 13:27N 33°52' W 119°07'716.3
2018-Jun-13 13:00N 33°58' W 119°12'812.9
2018-Jun-13 12:24N 34°05' W 119°15'4 9.6
2018-Jun-13 12:00N 34°09' W 119°13'0 0.6
2018-Jun-13 11:30N 34°09' W 119°12'0 0.0
2018-Jun-13 10:54N 34°09' W 119°12'0 0.0
2018-Jun-13 10:21N 34°09' W 119°12'0 0.0
2018-Jun-13 10:00N 34°09' W 119°12'0 0.0
2018-Jun-13 08:24N 34°09' W 119°12'0 0.0
2018-Jun-13 07:57N 34°09' W 119°12'0 0.0
2018-Jun-13 07:30N 34°09' W 119°12'0 0.0
2018-Jun-13 07:00N 34°09' W 119°12'0 0.0
2018-Jun-13 06:30N 34°09' W 119°12'0 0.0
2018-Jun-13 06:00N 34°09' W 119°12'0 0.0
2018-Jun-13 05:24N 34°09' W 119°12'0 0.0
2018-Jun-13 05:00N 34°09' W 119°12'0 0.0
2018-Jun-13 04:21N 34°09' W 119°12'0 0.0
2018-Jun-13 04:00N 34°09' W 119°12'0 0.0
2018-Jun-13 03:30N 34°09' W 119°12'0 0.0
2018-Jun-13 02:54N 34°09' W 119°12'0 0.0
2018-Jun-13 02:30N 34°09' W 119°12'0 0.0
2018-Jun-13 02:00N 34°09' W 119°12'0 0.0
2018-Jun-13 01:27N 34°09' W 119°12'0 0.0
2018-Jun-13 01:00N 34°09' W 119°12'0 0.0
2018-Jun-13 00:24N 34°09' W 119°12'0 0.0
2018-Jun-12 23:57N 34°09' W 119°12'0 0.0
2018-Jun-12 23:30N 34°09' W 119°12'0 0.0
2018-Jun-12 23:00N 34°09' W 119°12'0 0.0
2018-Jun-12 22:30N 34°09' W 119°12'0 0.0
2018-Jun-12 21:54N 34°09' W 119°12'0 0.0
2018-Jun-12 21:30N 34°09' W 119°12'0 0.0
2018-Jun-12 21:00N 34°09' W 119°12'0 0.0
2018-Jun-12 20:30N 34°09' W 119°12'0 0.0
2018-Jun-12 20:00N 34°09' W 119°12'0 0.0
2018-Jun-12 19:30N 34°09' W 119°12'0 0.0
2018-Jun-12 18:57N 34°09' W 119°12'0 0.0
2018-Jun-12 18:27N 34°09' W 119°12'0 0.0
2018-Jun-12 17:48N 34°09' W 119°12'0 0.0
2018-Jun-12 17:24N 34°09' W 119°12'0 0.0
2018-Jun-12 15:57N 34°09' W 119°12'0 0.0
2018-Jun-12 11:48N 34°09' W 119°12'0 0.0
2018-Jun-12 11:30N 34°09' W 119°12'0 0.0
2018-Jun-12 11:00N 34°09' W 119°12'0 0.0
2018-Jun-12 10:27N 34°09' W 119°12'0 0.0
2018-Jun-12 10:00N 34°09' W 119°12'0 0.0
2018-Jun-12 09:30N 34°09' W 119°12'0 0.0
2018-Jun-12 09:00N 34°09' W 119°12'0 0.0
2018-Jun-12 08:30N 34°09' W 119°12'0 0.0
2018-Jun-12 08:00N 34°09' W 119°12'0 0.0
2018-Jun-12 07:24N 34°09' W 119°12'0 0.0
2018-Jun-12 07:00N 34°09' W 119°12'0 0.0
2018-Jun-12 06:30N 34°09' W 119°12'0 0.0
2018-Jun-12 06:00N 34°09' W 119°12'0 0.0
2018-Jun-12 05:30N 34°09' W 119°12'0 0.0
2018-Jun-12 05:00N 34°09' W 119°12'0 0.0
2018-Jun-12 03:36N 34°09' W 119°12'0 0.0
2018-Jun-12 03:27N 34°09' W 119°12'0 0.0
2018-Jun-12 02:18N 34°09' W 119°12'0 0.0
2018-Jun-12 01:00N 34°09' W 119°12'0 0.1
2018-Jun-12 00:27N 34°09' W 119°12'0 0.1
2018-Jun-12 00:00N 34°09' W 119°12'0 0.0
2018-Jun-11 23:30N 34°09' W 119°12'0 0.0
2018-Jun-11 23:00N 34°09' W 119°12'0 0.1
2018-Jun-11 22:30N 34°09' W 119°12'0 0.1
2018-Jun-11 21:54N 34°09' W 119°12'0 0.0
2018-Jun-11 21:30N 34°09' W 119°12'0 0.0
2018-Jun-11 21:00N 34°09' W 119°12'0 0.0
2018-Jun-11 20:30N 34°09' W 119°12'0 0.0
2018-Jun-11 14:42N 34°09' W 119°12'0 0.0
2018-Jun-11 11:06N 34°09' W 119°12'0 0.0
2018-Jun-11 08:00N 34°09' W 119°12'0 0.0
2018-Jun-11 07:24N 34°09' W 119°12'0 0.0
2018-Jun-11 03:21N 34°09' W 119°12'0 0.1
2018-Jun-11 02:48N 34°09' W 119°12'0 0.0
2018-Jun-11 02:30N 34°09' W 119°12'0 0.0
2018-Jun-11 02:00N 34°09' W 119°12'0 0.0
2018-Jun-11 01:30N 34°09' W 119°12'0 0.0
2018-Jun-11 01:00N 34°09' W 119°12'0 0.0
2018-Jun-10 22:58N 34°09' W 119°12'2 3.3
2018-Jun-10 22:28N 34°08' W 119°14'3 5.7
2018-Jun-10 21:57N 34°05' W 119°14'2 3.6
2018-Jun-10 21:30N 34°04' W 119°13'4 7.8
2018-Jun-10 21:00N 34°00' W 119°10'510.5
2018-Jun-10 20:29N 33°55' W 119°09'612.4
2018-Jun-10 19:59N 33°50' W 119°05'612.5
2018-Jun-10 19:30N 33°45' W 119°01'713.4
2018-Jun-10 18:59N 33°40' W 118°56'714.9
2018-Jun-10 18:30N 33°34' W 118°51'714.8
2018-Jun-10 18:00N 33°28' W 118°45'815.6
2018-Jun-10 17:30N 33°22' W 118°40'816.3
2018-Jun-10 17:00N 33°15' W 118°34'816.4
2018-Jun-10 16:30N 33°09' W 118°28'815.8
2018-Jun-10 16:00N 33°02' W 118°22'815.9
2018-Jun-10 15:30N 32°56' W 118°17'1817.0
2018-Jun-10 14:26N 32°41' W 118°04'1613.8
2018-Jun-10 13:17N 32°29' W 117°52'1216.8
2018-Jun-10 12:34N 32°18' W 117°47'116.8
2018-Jun-10 12:30N 32°17' W 117°47'4516.6
2018-Jun-10 09:47N 31°35' W 117°26'416.4
2018-Jun-10 09:30N 31°31' W 117°24'9516.0
2018-Jun-10 03:34N 30°03' W 116°42'115.6
2018-Jun-10 03:30N 30°02' W 116°42'815.5
2018-Jun-10 03:00N 29°55' W 116°38'714.9
2018-Jun-10 02:30N 29°48' W 116°35'815.1
2018-Jun-10 02:00N 29°41' W 116°32'815.4
2018-Jun-10 01:31N 29°34' W 116°28'815.6
2018-Jun-10 01:00N 29°26' W 116°25'915.7
2018-Jun-10 00:25N 29°18' W 116°21'5115.9
2018-Jun-09 21:13N 28°31' W 115°58'316.1
2018-Jun-09 21:00N 28°28' W 115°57'3416.6
2018-Jun-09 18:56N 27°59' W 115°37'1117.1
2018-Jun-09 18:18N 27°50' W 115°30'517.1
2018-Jun-09 18:00N 27°45' W 115°26'916.9
2018-Jun-09 17:29N 27°38' W 115°21'817.1
2018-Jun-09 17:00N 27°31' W 115°15'2316.5
2018-Jun-09 15:37N 27°13' W 115°01'1016.3
2018-Jun-09 15:00N 27°04' W 114°54'  
Track history (hours):
 
Tides and Currents Weather Stations Pressure Air Temp Water Temp Dewpoint Dewpoint Depression Visibility Wind Speed Wind Dir Waves Ship Positions

Star Pride

Last reported at 2018-Jun-14 14:06 UTC. Time now 2018-Jun-22 07:31 UTC.
Position N 26°42' W 114°37'.

Length 163 m; draft 7.9 m.

Type: Cargo ship. MMSI: 566090000.

Date/timePositionNaut miles runAvg speedWind from/ knotsBaromVisibWave heightAir tempDewpointWater temp
2018-Jun-14 14:06N 26°42' W 114°37'220.6
2018-Jun-14 14:00N 26°44' W 114°38'1120.9
2018-Jun-14 13:29N 26°53' W 114°45'4120.8
2018-Jun-14 11:30N 27°27' W 115°11'6520.0
2018-Jun-14 08:16N 28°20' W 115°53'2720.7
2018-Jun-14 06:57N 28°45' W 116°05'2120.7
2018-Jun-14 05:58N 29°04' W 116°14'1720.3
2018-Jun-14 05:09N 29°19' W 116°21'320.3
2018-Jun-14 05:00N 29°22' W 116°22'1220.7
2018-Jun-14 04:24N 29°34' W 116°28'820.6
2018-Jun-14 04:00N 29°41' W 116°32'1221.1
2018-Jun-14 03:25N 29°52' W 116°37'921.6
2018-Jun-14 03:00N 30°01' W 116°41'1021.2
2018-Jun-14 02:30N 30°11' W 116°45'1321.2
2018-Jun-14 01:53N 30°23' W 116°51'821.1
2018-Jun-14 01:29N 30°30' W 116°55'1421.4
2018-Jun-14 00:50N 30°43' W 117°02'1220.9
2018-Jun-14 00:15N 30°54' W 117°07'720.7
2018-Jun-13 23:56N 31°01' W 117°10'1120.6
2018-Jun-13 23:25N 31°11' W 117°14'820.3
2018-Jun-13 23:01N 31°18' W 117°18'1820.4
2018-Jun-13 22:09N 31°34' W 117°26'320.4
2018-Jun-13 21:59N 31°37' W 117°28'1020.3
2018-Jun-13 21:29N 31°47' W 117°32'1020.1
2018-Jun-13 20:58N 31°56' W 117°37'919.0
2018-Jun-13 20:31N 32°04' W 117°41'1019.1
2018-Jun-13 20:00N 32°13' W 117°45'1019.6
2018-Jun-13 19:31N 32°22' W 117°49'1019.9
2018-Jun-13 19:01N 32°31' W 117°55'1019.7
2018-Jun-13 18:30N 32°39' W 118°02'1019.7
2018-Jun-13 18:00N 32°47' W 118°08'1019.9
2018-Jun-13 17:31N 32°55' W 118°16'1020.2
2018-Jun-13 17:01N 33°03' W 118°23'918.9
2018-Jun-13 16:30N 33°11' W 118°30'917.5
2018-Jun-13 16:00N 33°18' W 118°36'917.4
2018-Jun-13 15:30N 33°25' W 118°42'917.6
2018-Jun-13 15:00N 33°32' W 118°48'916.8
2018-Jun-13 14:29N 33°39' W 118°55'816.2
2018-Jun-13 13:59N 33°45' W 119°00'916.1
2018-Jun-13 13:27N 33°52' W 119°07'716.3
2018-Jun-13 13:00N 33°58' W 119°12'812.9
2018-Jun-13 12:24N 34°05' W 119°15'4 9.6
2018-Jun-13 12:00N 34°09' W 119°13'0 0.6
2018-Jun-13 11:30N 34°09' W 119°12'0 0.0
2018-Jun-13 10:54N 34°09' W 119°12'0 0.0
2018-Jun-13 10:21N 34°09' W 119°12'0 0.0
2018-Jun-13 10:00N 34°09' W 119°12'0 0.0
2018-Jun-13 08:24N 34°09' W 119°12'0 0.0
2018-Jun-13 07:57N 34°09' W 119°12'0 0.0
2018-Jun-13 07:30N 34°09' W 119°12'0 0.0
2018-Jun-13 07:00N 34°09' W 119°12'0 0.0
2018-Jun-13 06:30N 34°09' W 119°12'0 0.0
2018-Jun-13 06:00N 34°09' W 119°12'0 0.0
2018-Jun-13 05:24N 34°09' W 119°12'0 0.0
2018-Jun-13 05:00N 34°09' W 119°12'0 0.0
2018-Jun-13 04:21N 34°09' W 119°12'0 0.0
2018-Jun-13 04:00N 34°09' W 119°12'0 0.0
2018-Jun-13 03:30N 34°09' W 119°12'0 0.0
2018-Jun-13 02:54N 34°09' W 119°12'0 0.0
2018-Jun-13 02:30N 34°09' W 119°12'0 0.0
2018-Jun-13 02:00N 34°09' W 119°12'0 0.0
2018-Jun-13 01:27N 34°09' W 119°12'0 0.0
2018-Jun-13 01:00N 34°09' W 119°12'0 0.0
2018-Jun-13 00:24N 34°09' W 119°12'0 0.0
2018-Jun-12 23:57N 34°09' W 119°12'0 0.0
2018-Jun-12 23:30N 34°09' W 119°12'0 0.0
2018-Jun-12 23:00N 34°09' W 119°12'0 0.0
2018-Jun-12 22:30N 34°09' W 119°12'0 0.0
2018-Jun-12 21:54N 34°09' W 119°12'0 0.0
2018-Jun-12 21:30N 34°09' W 119°12'0 0.0
2018-Jun-12 21:00N 34°09' W 119°12'0 0.0
2018-Jun-12 20:30N 34°09' W 119°12'0 0.0
2018-Jun-12 20:00N 34°09' W 119°12'0 0.0
2018-Jun-12 19:30N 34°09' W 119°12'0 0.0
2018-Jun-12 18:57N 34°09' W 119°12'0 0.0
2018-Jun-12 18:27N 34°09' W 119°12'0 0.0
2018-Jun-12 17:48N 34°09' W 119°12'0 0.0
2018-Jun-12 17:24N 34°09' W 119°12'0 0.0
2018-Jun-12 15:57N 34°09' W 119°12'0 0.0
2018-Jun-12 11:48N 34°09' W 119°12'0 0.0
2018-Jun-12 11:30N 34°09' W 119°12'0 0.0
2018-Jun-12 11:00N 34°09' W 119°12'0 0.0
2018-Jun-12 10:27N 34°09' W 119°12'0 0.0
2018-Jun-12 10:00N 34°09' W 119°12'0 0.0
2018-Jun-12 09:30N 34°09' W 119°12'0 0.0
2018-Jun-12 09:00N 34°09' W 119°12'0 0.0
2018-Jun-12 08:30N 34°09' W 119°12'0 0.0
2018-Jun-12 08:00N 34°09' W 119°12'0 0.0
2018-Jun-12 07:24N 34°09' W 119°12'0 0.0
2018-Jun-12 07:00N 34°09' W 119°12'0 0.0
2018-Jun-12 06:30N 34°09' W 119°12'0 0.0
2018-Jun-12 06:00N 34°09' W 119°12'0 0.0
2018-Jun-12 05:30N 34°09' W 119°12'0 0.0
2018-Jun-12 05:00N 34°09' W 119°12'0 0.0
2018-Jun-12 03:36N 34°09' W 119°12'0 0.0
2018-Jun-12 03:27N 34°09' W 119°12'0 0.0
2018-Jun-12 02:18N 34°09' W 119°12'0 0.0
2018-Jun-12 01:00N 34°09' W 119°12'0 0.1
2018-Jun-12 00:27N 34°09' W 119°12'0 0.1
2018-Jun-12 00:00N 34°09' W 119°12'0 0.0
2018-Jun-11 23:30N 34°09' W 119°12'0 0.0
2018-Jun-11 23:00N 34°09' W 119°12'0 0.1
2018-Jun-11 22:30N 34°09' W 119°12'0 0.1
2018-Jun-11 21:54N 34°09' W 119°12'0 0.0
2018-Jun-11 21:30N 34°09' W 119°12'0 0.0
2018-Jun-11 21:00N 34°09' W 119°12'0 0.0
2018-Jun-11 20:30N 34°09' W 119°12'0 0.0
2018-Jun-11 14:42N 34°09' W 119°12'0 0.0
2018-Jun-11 11:06N 34°09' W 119°12'0 0.0
2018-Jun-11 08:00N 34°09' W 119°12'0 0.0
2018-Jun-11 07:24N 34°09' W 119°12'0 0.0
2018-Jun-11 03:21N 34°09' W 119°12'0 0.1
2018-Jun-11 02:48N 34°09' W 119°12'0 0.0
2018-Jun-11 02:30N 34°09' W 119°12'0 0.0
2018-Jun-11 02:00N 34°09' W 119°12'0 0.0
2018-Jun-11 01:30N 34°09' W 119°12'0 0.0
2018-Jun-11 01:00N 34°09' W 119°12'0 0.0
2018-Jun-10 22:58N 34°09' W 119°12'2 3.3
2018-Jun-10 22:28N 34°08' W 119°14'3 5.7
2018-Jun-10 21:57N 34°05' W 119°14'2 3.6
2018-Jun-10 21:30N 34°04' W 119°13'4 7.8
2018-Jun-10 21:00N 34°00' W 119°10'510.5
2018-Jun-10 20:29N 33°55' W 119°09'612.4
2018-Jun-10 19:59N 33°50' W 119°05'612.5
2018-Jun-10 19:30N 33°45' W 119°01'713.4
2018-Jun-10 18:59N 33°40' W 118°56'714.9
2018-Jun-10 18:30N 33°34' W 118°51'714.8
2018-Jun-10 18:00N 33°28' W 118°45'815.6
2018-Jun-10 17:30N 33°22' W 118°40'816.3
2018-Jun-10 17:00N 33°15' W 118°34'816.4
2018-Jun-10 16:30N 33°09' W 118°28'815.8
2018-Jun-10 16:00N 33°02' W 118°22'815.9
2018-Jun-10 15:30N 32°56' W 118°17'1817.0
2018-Jun-10 14:26N 32°41' W 118°04'1613.8
2018-Jun-10 13:17N 32°29' W 117°52'1216.8
2018-Jun-10 12:34N 32°18' W 117°47'116.8
2018-Jun-10 12:30N 32°17' W 117°47'4516.6
2018-Jun-10 09:47N 31°35' W 117°26'416.4
2018-Jun-10 09:30N 31°31' W 117°24'9516.0
2018-Jun-10 03:34N 30°03' W 116°42'115.6
2018-Jun-10 03:30N 30°02' W 116°42'815.5
2018-Jun-10 03:00N 29°55' W 116°38'714.9
2018-Jun-10 02:30N 29°48' W 116°35'815.1
2018-Jun-10 02:00N 29°41' W 116°32'815.4
2018-Jun-10 01:31N 29°34' W 116°28'815.6
2018-Jun-10 01:00N 29°26' W 116°25'915.7
2018-Jun-10 00:25N 29°18' W 116°21'5115.9
2018-Jun-09 21:13N 28°31' W 115°58'316.1
2018-Jun-09 21:00N 28°28' W 115°57'3416.6
2018-Jun-09 18:56N 27°59' W 115°37'1117.1
2018-Jun-09 18:18N 27°50' W 115°30'517.1
2018-Jun-09 18:00N 27°45' W 115°26'916.9
2018-Jun-09 17:29N 27°38' W 115°21'817.1
2018-Jun-09 17:00N 27°31' W 115°15'2316.5
2018-Jun-09 15:37N 27°13' W 115°01'1016.3
2018-Jun-09 15:00N 27°04' W 114°54'  

Dump ship's entire track history